createdAt,value
2022-12-26T00:04:58.313Z,100765.88
2022-12-26T00:10:00.003Z,100768.28
2022-12-26T00:15:01.922Z,100773.41
2022-12-26T00:20:03.993Z,100776.00
2022-12-26T00:25:06.188Z,100784.38
2022-12-26T00:30:08.991Z,100797.56
2022-12-26T00:35:10.711Z,100803.75
2022-12-26T00:40:12.668Z,100802.91
2022-12-26T00:45:14.301Z,100798.25
2022-12-26T00:50:16.260Z,100794.34
2022-12-26T00:55:18.088Z,100775.16
2022-12-26T01:00:46.827Z,100764.84
2022-12-26T01:05:51.001Z,100759.00
2022-12-26T01:10:53.222Z,100765.34
2022-12-26T01:15:54.999Z,100785.06
2022-12-26T01:21:02.172Z,100773.41
2022-12-26T01:26:16.351Z,100793.66
2022-12-26T01:31:22.920Z,100798.09
2022-12-26T01:36:24.604Z,100786.59
2022-12-26T01:41:26.873Z,100785.59
2022-12-26T01:46:37.972Z,100787.13
2022-12-26T01:51:44.724Z,100786.44
2022-12-26T01:56:47.379Z,100798.63
2022-12-26T02:01:53.002Z,100784.56
2022-12-26T02:06:58.171Z,100777.53
2022-12-26T02:12:34.892Z,100766.91
2022-12-26T02:17:41.147Z,100770.50
2022-12-26T02:23:07.837Z,100769.97
2022-12-26T02:28:18.392Z,100754.19
2022-12-26T02:33:37.064Z,100757.09
2022-12-26T02:39:45.105Z,100765.84
2022-12-26T02:44:54.959Z,100772.84
2022-12-26T02:50:43.450Z,100757.94
2022-12-26T02:56:08.442Z,100761.34
2022-12-26T03:01:51.482Z,100765.44
2022-12-26T03:07:18.346Z,100774.03
2022-12-26T03:12:38.678Z,100771.28
2022-12-26T03:17:40.292Z,100771.81
2022-12-26T03:23:01.673Z,100767.19
2022-12-26T03:28:03.478Z,100754.00
2022-12-26T03:33:26.436Z,100761.34
2022-12-26T03:38:51.256Z,100754.31
2022-12-26T03:44:36.638Z,100747.16
2022-12-26T03:50:05.816Z,100741.13
2022-12-26T03:55:48.487Z,100746.78
2022-12-26T04:01:13.025Z,100758.44
2022-12-26T04:06:39.043Z,100756.53
2022-12-26T04:12:02.970Z,100749.00
2022-12-26T04:17:46.385Z,100740.63
2022-12-26T04:23:30.120Z,100755.53
2022-12-26T04:28:50.247Z,100750.38
2022-12-26T04:34:16.598Z,100761.03
2022-12-26T04:39:42.129Z,100749.03
2022-12-26T04:44:45.918Z,100753.13
2022-12-26T04:50:05.956Z,100755.03
2022-12-26T04:55:07.976Z,100742.69
2022-12-26T05:00:10.228Z,100744.25
2022-12-26T05:05:30.734Z,100740.13
2022-12-26T05:10:32.852Z,100722.47
2022-12-26T05:15:54.499Z,100738.75
2022-12-26T05:21:15.040Z,100737.88
2022-12-26T05:26:41.541Z,100732.78
2022-12-26T05:31:43.560Z,100736.00
2022-12-26T05:36:51.964Z,100744.41
2022-12-26T05:41:53.855Z,100744.75
2022-12-26T05:46:55.744Z,100748.19
2022-12-26T05:51:57.354Z,100740.66
2022-12-26T05:57:00.188Z,100740.13
2022-12-26T06:02:02.035Z,100741.00
2022-12-26T06:07:04.018Z,100747.66
2022-12-26T06:12:05.822Z,100751.78
2022-12-26T06:17:07.459Z,100738.06
2022-12-26T06:22:09.077Z,100749.72
2022-12-26T06:27:10.673Z,100734.50
2022-12-26T06:32:12.541Z,100732.97
2022-12-26T06:37:14.297Z,100720.78
2022-12-26T06:42:15.934Z,100730.56
2022-12-26T06:47:17.663Z,100706.91
2022-12-26T06:52:19.381Z,100716.34
2022-12-26T06:57:21.074Z,100716.66
2022-12-26T07:02:22.911Z,100723.72
2022-12-26T07:07:24.618Z,100713.75
2022-12-26T07:12:26.215Z,100707.75
2022-12-26T07:17:27.789Z,100716.66
2022-12-26T07:22:29.443Z,100722.34
2022-12-26T07:27:31.189Z,100726.78
2022-12-26T07:32:32.929Z,100724.19
2022-12-26T07:37:34.626Z,100728.16
2022-12-26T07:42:36.631Z,100723.19
2022-12-26T07:47:38.283Z,100766.75
2022-12-26T07:52:39.865Z,100763.97
2022-12-26T07:57:49.581Z,100779.41
2022-12-26T08:02:53.323Z,100796.34
2022-12-26T08:07:55.042Z,100803.06
2022-12-26T08:12:57.940Z,100809.03
2022-12-26T08:17:59.666Z,100810.72
2022-12-26T08:23:02.491Z,100834.22
2022-12-26T08:28:04.412Z,100874.28
2022-12-26T08:33:06.067Z,100896.28
2022-12-26T08:38:07.837Z,100921.56
2022-12-26T08:43:30.214Z,100943.09
2022-12-26T08:48:31.563Z,100968.91
2022-12-26T08:53:35.823Z,100962.56
2022-12-26T08:58:37.619Z,100997.56
2022-12-26T09:03:39.859Z,101019.56
2022-12-26T09:08:42.225Z,101041.63
2022-12-26T09:13:45.246Z,101055.50
2022-12-26T09:18:48.222Z,101064.28
2022-12-26T09:23:50.319Z,101084.69
2022-12-26T09:28:52.353Z,101088.72
2022-12-26T09:33:54.619Z,101089.22
2022-12-26T09:38:58.501Z,101108.38
2022-12-26T09:44:07.600Z,101119.75
2022-12-26T09:49:15.204Z,101131.97
2022-12-26T09:54:40.347Z,101136.56
2022-12-26T09:59:54.576Z,101142.13
2022-12-26T10:04:56.405Z,101145.75
2022-12-26T10:10:09.627Z,101144.25
2022-12-26T10:15:26.233Z,101151.75
2022-12-26T10:20:33.477Z,101156.19
2022-12-26T10:25:53.507Z,101168.81
2022-12-26T10:30:58.628Z,101176.72
2022-12-26T10:36:01.373Z,101182.59
2022-12-26T10:41:26.385Z,101189.72
2022-12-26T10:47:16.399Z,101192.31
2022-12-26T10:52:23.008Z,101204.81
2022-12-26T10:57:28.669Z,101215.94
2022-12-26T11:02:32.273Z,101226.06
2022-12-26T11:07:37.981Z,101237.38
2022-12-26T11:12:51.263Z,101247.53
2022-12-26T11:17:53.976Z,101265.97
2022-12-26T11:23:14.139Z,101268.53
2022-12-26T11:28:24.541Z,101282.09
2022-12-26T11:33:30.774Z,101290.47
2022-12-26T11:38:44.923Z,101283.34
2022-12-26T11:43:48.320Z,101302.00
2022-12-26T11:48:51.290Z,101304.63
2022-12-26T11:54:13.057Z,101313.44
2022-12-26T11:59:21.676Z,101305.84
2022-12-26T12:04:23.302Z,101327.44
2022-12-26T12:10:09.515Z,101328.00
2022-12-26T12:15:22.657Z,101330.19
2022-12-26T12:20:50.263Z,101338.13
2022-12-26T12:26:09.334Z,101365.50
2022-12-26T12:31:49.092Z,101361.22
2022-12-26T12:37:04.666Z,101379.91
2022-12-26T12:42:27.961Z,101370.41
2022-12-26T12:47:35.195Z,101356.13
2022-12-26T12:52:55.067Z,101368.94
2022-12-26T12:58:07.736Z,101384.53
2022-12-26T13:03:35.629Z,101383.09
2022-12-26T13:08:53.741Z,101390.44
2022-12-26T13:14:10.571Z,101384.09
2022-12-26T13:19:21.654Z,101393.19
2022-12-26T13:24:36.592Z,101384.81
2022-12-26T13:29:46.917Z,101385.69
2022-12-26T13:34:50.092Z,101398.63
2022-12-26T13:39:52.648Z,101409.63
2022-12-26T13:44:54.782Z,101412.50
2022-12-26T13:49:56.418Z,101420.69
2022-12-26T13:55:07.368Z,101415.38
2022-12-26T14:00:48.250Z,101422.84
2022-12-26T14:06:17.885Z,101438.44
2022-12-26T14:11:52.676Z,101439.88
2022-12-26T14:16:57.062Z,101447.34
2022-12-26T14:22:17.185Z,101445.03
2022-12-26T14:27:37.778Z,101464.75
2022-12-26T14:32:45.223Z,101471.28
2022-12-26T14:38:10.464Z,101474.44
2022-12-26T14:43:38.054Z,101466.34
2022-12-26T14:48:46.107Z,101474.56
2022-12-26T14:54:22.157Z,101481.59
2022-12-26T14:59:30.761Z,101494.25
2022-12-26T15:04:43.784Z,101497.44
2022-12-26T15:10:23.975Z,101508.97
2022-12-26T15:15:32.751Z,101504.50
2022-12-26T15:20:40.528Z,101503.84
2022-12-26T15:26:00.374Z,101511.25
2022-12-26T15:31:23.005Z,101518.97
2022-12-26T15:36:37.110Z,101522.59
2022-12-26T15:41:48.591Z,101527.91
2022-12-26T15:47:22.174Z,101529.63
2022-12-26T15:52:36.088Z,101533.78
2022-12-26T15:57:58.919Z,101541.41
2022-12-26T16:03:00.609Z,101531.34
2022-12-26T16:08:24.173Z,101540.69
2022-12-26T16:13:26.028Z,101531.63
2022-12-26T16:18:33.091Z,101531.47
2022-12-26T16:23:40.094Z,101535.78
2022-12-26T16:28:43.410Z,101536.19
2022-12-26T16:33:45.284Z,101543.81
2022-12-26T16:38:47.744Z,101547.44
2022-12-26T16:43:51.444Z,101558.75
2022-12-26T16:48:57.240Z,101554.19
2022-12-26T16:54:15.948Z,101562.00
2022-12-26T16:59:24.053Z,101558.50
2022-12-26T17:04:28.648Z,101574.91
2022-12-26T17:09:39.337Z,101571.63
2022-12-26T17:14:43.335Z,101577.16
2022-12-26T17:19:47.800Z,101580.31
2022-12-26T17:25:26.624Z,101585.38
2022-12-26T17:30:31.530Z,101602.91
2022-12-26T17:36:21.365Z,101597.13
2022-12-26T17:41:02.029Z,101599.72
2022-12-26T17:46:06.086Z,101606.38
2022-12-26T17:51:12.830Z,101611.13
2022-12-26T17:56:17.594Z,101603.59
2022-12-26T18:01:23.903Z,101604.25
2022-12-26T18:06:26.040Z,101615.38
2022-12-26T18:11:27.644Z,101625.59
2022-12-26T18:16:30.049Z,101637.06
2022-12-26T18:21:31.848Z,101633.88
2022-12-26T18:26:33.530Z,101631.25
2022-12-26T18:31:39.493Z,101635.88
2022-12-26T18:36:43.142Z,101644.28
2022-12-26T18:41:48.007Z,101651.84
2022-12-26T18:46:52.673Z,101657.81
2022-12-26T18:51:54.457Z,101667.59
2022-12-26T18:56:56.076Z,101686.75
2022-12-26T19:02:00.639Z,101685.19
2022-12-26T19:07:05.025Z,101687.19
2022-12-26T19:12:06.806Z,101683.00
2022-12-26T19:17:08.923Z,101694.41
2022-12-26T19:22:12.604Z,101693.16
2022-12-26T19:27:15.419Z,101697.59
2022-12-26T19:32:17.805Z,101701.94
2022-12-26T19:37:19.607Z,101696.81
2022-12-26T19:42:21.364Z,101698.81
2022-12-26T19:47:23.287Z,101687.38
2022-12-26T19:52:27.279Z,101711.50
2022-12-26T19:57:37.901Z,101708.47
2022-12-26T20:02:40.492Z,101718.69
2022-12-26T20:07:44.671Z,101704.59
2022-12-26T20:12:46.348Z,101709.13
2022-12-26T20:17:49.135Z,101712.81
2022-12-26T20:22:53.233Z,101708.97
2022-12-26T20:27:55.160Z,101712.69
2022-12-26T20:32:57.326Z,101710.22
2022-12-26T20:37:59.161Z,101729.09
2022-12-26T20:43:00.832Z,101734.56
2022-12-26T20:48:02.636Z,101745.50
2022-12-26T20:53:07.293Z,101751.38
2022-12-26T20:58:08.926Z,101753.09
2022-12-26T21:03:15.043Z,101753.81
2022-12-26T21:08:20.221Z,101769.25
2022-12-26T21:13:22.005Z,101763.28
2022-12-26T21:18:23.678Z,101757.69
2022-12-26T21:23:25.348Z,101772.50
2022-12-26T21:28:30.197Z,101775.69
2022-12-26T21:33:32.022Z,101780.31
2022-12-26T21:38:33.747Z,101771.13
2022-12-26T21:43:35.837Z,101791.00
2022-12-26T21:48:39.442Z,101785.66
2022-12-26T21:53:41.575Z,101787.53
2022-12-26T21:59:02.830Z,101795.88
2022-12-26T22:04:19.679Z,101798.38
2022-12-26T22:09:21.796Z,101798.63
2022-12-26T22:14:23.522Z,101798.63
2022-12-26T22:19:26.172Z,101806.22
2022-12-26T22:24:27.843Z,101806.44
2022-12-26T22:29:29.471Z,101807.56
2022-12-26T22:34:31.073Z,101813.66
2022-12-26T22:39:32.688Z,101806.44
2022-12-26T22:44:34.320Z,101821.75
2022-12-26T22:49:36.060Z,101819.66
2022-12-26T22:54:37.723Z,101830.31
2022-12-26T23:00:07.805Z,101830.06
2022-12-26T23:05:01.520Z,101848.22
2022-12-26T23:10:05.685Z,101836.03
2022-12-26T23:15:08.319Z,101846.69
2022-12-26T23:20:31.174Z,101837.97
2022-12-26T23:25:32.944Z,101848.38
2022-12-26T23:30:34.850Z,101855.38
2022-12-26T23:35:36.588Z,101862.97
2022-12-26T23:40:38.273Z,101865.72
2022-12-26T23:45:44.149Z,101868.31
2022-12-26T23:50:45.915Z,101868.69
2022-12-26T23:55:47.830Z,101855.63
